Time;durP1;ratioP1;P1;durP2;ratioP2;P2;SDS_P1;SDS_P2;PMS_P1;PMS_P2;Temp;Humidity;BMP_temperature;BMP_pressure;BME280_temperature;BME280_humidity;BME280_pressure;Samples;Min_cycle;Max_cycle;Signal;HPM_P1;HPM_P2
2022/03/17 00:01:39;;;;;;;23.02;17.85;;;16.70;59.50;;;;;;4048817;29;20103;-66
2022/03/17 00:04:02;;;;;;;24.17;18.23;;;16.70;59.50;;;;;;4048530;29;20051;-65
2022/03/17 00:06:24;;;;;;;25.90;17.85;;;16.70;59.60;;;;;;4047074;29;20523;-66
2022/03/17 00:08:47;;;;;;;23.83;17.67;;;16.70;59.60;;;;;;4046842;29;20059;-66
2022/03/17 00:11:10;;;;;;;21.90;15.93;;;16.70;59.20;;;;;;4039482;29;20135;-66
2022/03/17 00:13:33;;;;;;;23.98;16.30;;;16.60;60.20;;;;;;4047454;29;20048;-66
2022/03/17 00:15:55;;;;;;;23.10;17.60;;;16.60;59.60;;;;;;4043618;29;20056;-65
2022/03/17 00:18:18;;;;;;;27.27;17.30;;;16.60;59.60;;;;;;4023456;29;20060;-66
2022/03/17 00:20:41;;;;;;;24.35;17.73;;;16.60;59.60;;;;;;4042269;29;20059;-66
2022/03/17 00:23:05;;;;;;;27.00;17.48;;;16.60;59.60;;;;;;4034724;29;20083;-66
2022/03/17 00:25:30;;;;;;;24.88;17.92;;;16.60;59.80;;;;;;4048536;29;20115;-66
2022/03/17 00:27:54;;;;;;;26.60;18.17;;;16.60;59.70;;;;;;4026121;29;20042;-66
2022/03/17 00:30:16;;;;;;;27.00;18.05;;;16.60;59.80;;;;;;4017627;29;20054;-66
2022/03/17 00:32:39;;;;;;;29.60;20.92;;;16.60;59.60;;;;;;4031141;29;20075;-66
2022/03/17 00:37:46;;;;;;;27.13;18.65;;;16.50;59.10;;;;;;4046812;29;20440;-66
2022/03/17 00:40:09;;;;;;;27.00;18.27;;;16.50;59.40;;;;;;4046026;29;20064;-66
2022/03/17 00:42:34;;;;;;;25.05;18.98;;;16.50;59.40;;;;;;4033735;29;20532;-66
2022/03/17 00:44:57;;;;;;;26.83;18.38;;;16.50;59.30;;;;;;4047348;29;20542;-67
2022/03/17 00:47:19;;;;;;;26.17;18.65;;;16.50;59.60;;;;;;4045987;29;20053;-66
2022/03/17 00:49:42;;;;;;;28.15;19.13;;;16.50;59.40;;;;;;4046692;29;20048;-66
2022/03/17 00:52:09;;;;;;;27.45;18.23;;;16.50;59.10;;;;;;4047048;29;20440;-66
2022/03/17 00:54:32;;;;;;;25.45;18.77;;;16.50;59.60;;;;;;4045706;29;20448;-67
2022/03/17 00:56:54;;;;;;;27.02;19.58;;;16.50;59.60;;;;;;4032258;29;20491;-66
2022/03/17 00:59:18;;;;;;;24.75;17.88;;;16.50;59.40;;;;;;4046366;29;20059;-66
2022/03/17 01:01:40;;;;;;;25.60;19.15;;;16.50;59.70;;;;;;4047097;29;20056;-66
2022/03/17 01:04:03;;;;;;;28.20;19.27;;;16.40;60.40;;;;;;4024869;29;20093;-66
2022/03/17 01:06:26;;;;;;;26.70;19.20;;;16.40;59.40;;;;;;4008414;29;20053;-66
2022/03/17 01:08:48;;;;;;;25.98;18.20;;;16.40;59.40;;;;;;4029825;29;20064;-65
2022/03/17 01:11:11;;;;;;;30.40;19.42;;;16.40;59.30;;;;;;4017023;29;20053;-66
2022/03/17 01:13:34;;;;;;;25.95;19.02;;;16.40;59.30;;;;;;4030433;29;20119;-65
2022/03/17 01:15:58;;;;;;;27.10;19.27;;;16.40;59.70;;;;;;4053574;29;20412;-65
2022/03/17 01:18:21;;;;;;;26.90;18.10;;;16.40;59.40;;;;;;4044908;29;20056;-65
2022/03/17 01:20:44;;;;;;;29.15;19.25;;;16.40;59.40;;;;;;4037754;29;20055;-66
2022/03/17 01:23:07;;;;;;;25.02;19.38;;;16.30;59.50;;;;;;4041504;29;20503;-66
2022/03/17 01:25:29;;;;;;;26.75;19.10;;;16.30;59.50;;;;;;4031572;29;20105;-66
2022/03/17 01:27:52;;;;;;;29.55;18.80;;;16.30;59.70;;;;;;4048043;29;20059;-66
2022/03/17 01:30:15;;;;;;;26.48;18.70;;;16.30;59.60;;;;;;4031349;29;20049;-66
2022/03/17 01:32:41;;;;;;;23.63;18.50;;;16.30;59.60;;;;;;4035717;29;20431;-67
2022/03/17 01:35:05;;;;;;;28.95;19.48;;;16.30;59.50;;;;;;4029762;29;20506;-66
2022/03/17 01:37:28;;;;;;;26.55;18.35;;;16.30;59.30;;;;;;4045470;29;20131;-66
2022/03/17 01:39:50;;;;;;;26.90;19.70;;;16.30;59.60;;;;;;4045820;29;20503;-66
2022/03/17 01:42:14;;;;;;;30.52;19.55;;;16.30;59.70;;;;;;4043207;29;20157;-65
2022/03/17 01:44:36;;;;;;;28.15;19.40;;;16.30;59.90;;;;;;4040039;29;20466;-66
2022/03/17 01:49:41;;;;;;;26.15;19.65;;;16.20;59.70;;;;;;4046658;29;20041;-66
2022/03/17 01:52:04;;;;;;;30.67;19.55;;;16.20;59.40;;;;;;4047894;29;20182;-66
2022/03/17 01:54:27;;;;;;;26.70;19.33;;;16.20;59.50;;;;;;4027553;29;20484;-66
2022/03/17 01:56:59;;;;;;;27.65;19.55;;;16.20;59.90;;;;;;4046387;29;20540;-67
2022/03/17 01:59:22;;;;;;;24.70;17.88;;;16.20;60.20;;;;;;4045191;29;20049;-66
2022/03/17 02:01:46;;;;;;;27.02;18.83;;;16.20;60.10;;;;;;4058787;29;20472;-67
2022/03/17 02:04:08;;;;;;;25.75;18.98;;;16.20;60.70;;;;;;4057021;29;20063;-66
2022/03/17 02:06:33;;;;;;;26.70;18.75;;;16.20;60.90;;;;;;4033099;29;20510;-66
2022/03/17 02:08:58;;;;;;;29.00;19.77;;;16.20;61.20;;;;;;4034046;29;20491;-66
2022/03/17 02:14:02;;;;;;;25.88;18.90;;;16.20;60.90;;;;;;4046409;29;20435;-67
2022/03/17 02:16:24;;;;;;;25.88;19.30;;;16.20;60.50;;;;;;4047338;29;20525;-65
2022/03/17 02:18:47;;;;;;;25.70;18.05;;;16.20;60.80;;;;;;4037872;29;20048;-66
2022/03/17 02:21:11;;;;;;;26.70;19.48;;;16.20;61.00;;;;;;4062106;29;20052;-66
2022/03/17 02:26:15;;;;;;;31.67;19.13;;;16.20;60.90;;;;;;4029444;29;20468;-66
2022/03/17 02:28:37;;;;;;;28.08;19.13;;;16.20;61.40;;;;;;4037037;29;20564;-66
2022/03/17 02:31:01;;;;;;;26.50;18.42;;;16.20;61.40;;;;;;4030636;29;20060;-66
2022/03/17 02:33:24;;;;;;;27.00;18.45;;;16.20;61.40;;;;;;4018708;29;20056;-67
2022/03/17 02:35:49;;;;;;;26.42;17.92;;;16.20;61.20;;;;;;4041086;29;20044;-66
2022/03/17 02:38:15;;;;;;;29.77;20.05;;;16.20;61.50;;;;;;4046474;29;20123;-66
2022/03/17 02:40:40;;;;;;;28.02;17.90;;;16.20;62.80;;;;;;4054555;29;20798;-66
2022/03/17 02:43:05;;;;;;;25.08;19.15;;;16.20;61.20;;;;;;4049007;29;20075;-66
2022/03/17 02:45:28;;;;;;;24.85;17.77;;;16.20;61.30;;;;;;4031093;29;20063;-66
2022/03/17 02:47:53;;;;;;;26.38;18.55;;;16.20;60.90;;;;;;4042812;29;20112;-66
2022/03/17 02:50:16;;;;;;;26.00;19.30;;;16.20;61.20;;;;;;4031425;29;20467;-66
2022/03/17 02:52:38;;;;;;;27.45;18.48;;;16.20;61.70;;;;;;4045745;29;20448;-66
2022/03/17 02:55:00;;;;;;;25.17;19.05;;;16.20;61.80;;;;;;4031196;29;20097;-65
2022/03/17 02:57:25;;;;;;;27.17;19.08;;;16.20;61.80;;;;;;4031011;29;20053;-66
2022/03/17 02:59:48;;;;;;;29.77;19.52;;;16.20;61.60;;;;;;4038048;29;20056;-66
2022/03/17 03:02:11;;;;;;;29.67;19.35;;;16.10;61.80;;;;;;4030168;29;20057;-66
2022/03/17 03:04:34;;;;;;;26.80;19.65;;;16.10;62.10;;;;;;4030605;29;20068;-66
2022/03/17 03:06:57;;;;;;;24.92;18.30;;;16.10;61.50;;;;;;4040494;29;20057;-66
2022/03/17 03:09:19;;;;;;;29.77;19.00;;;16.10;61.80;;;;;;4037930;29;20120;-67
2022/03/17 03:11:42;;;;;;;25.73;18.02;;;16.10;62.00;;;;;;4032958;29;20560;-67
2022/03/17 03:14:07;;;;;;;27.15;19.23;;;16.10;61.90;;;;;;4033834;29;20076;-66
2022/03/17 03:16:30;;;;;;;26.90;18.42;;;16.20;62.30;;;;;;4035292;29;20085;-67
2022/03/17 03:18:52;;;;;;;27.45;18.67;;;16.20;63.00;;;;;;4048110;29;20123;-67
2022/03/17 03:21:14;;;;;;;26.88;18.25;;;16.20;63.30;;;;;;4049337;29;20503;-67
2022/03/17 03:23:37;;;;;;;26.70;18.95;;;16.20;63.50;;;;;;4032169;29;20049;-66
2022/03/17 03:25:59;;;;;;;26.77;18.80;;;16.30;63.70;;;;;;4033363;29;20120;-66
2022/03/17 03:28:22;;;;;;;28.08;18.50;;;16.30;63.50;;;;;;4034751;29;20543;-65
2022/03/17 03:30:46;;;;;;;24.75;18.63;;;16.40;63.40;;;;;;4034551;29;20053;-65
2022/03/17 03:33:09;;;;;;;24.15;18.17;;;16.50;63.20;;;;;;4028719;29;20061;-65
2022/03/17 03:38:11;;;;;;;24.52;19.27;;;16.50;63.00;;;;;;4034161;29;20056;-66
2022/03/17 03:40:33;;;;;;;27.35;18.92;;;16.60;63.00;;;;;;4032562;29;20511;-66
2022/03/17 03:42:56;;;;;;;27.63;18.55;;;16.60;62.90;;;;;;4038122;29;20049;-65
2022/03/17 03:45:18;;;;;;;26.60;19.13;;;16.60;62.80;;;;;;4048666;29;20044;-64
2022/03/17 03:47:42;;;;;;;25.40;18.42;;;16.60;62.80;;;;;;4034127;29;20049;-65
2022/03/17 03:50:05;;;;;;;27.33;19.02;;;16.60;62.80;;;;;;4033516;29;20052;-65
2022/03/17 03:52:27;;;;;;;26.00;19.33;;;16.60;63.00;;;;;;4033237;29;20056;-65
2022/03/17 03:54:49;;;;;;;25.60;18.55;;;16.60;63.00;;;;;;4033331;29;20415;-65
2022/03/17 03:57:11;;;;;;;23.38;17.77;;;16.60;63.30;;;;;;4033399;29;20415;-65
2022/03/17 03:59:34;;;;;;;27.83;19.20;;;16.60;63.10;;;;;;4033608;29;20055;-64
2022/03/17 04:01:58;;;;;;;24.80;18.77;;;16.60;63.20;;;;;;4033775;29;20056;-65
2022/03/17 04:04:24;;;;;;;24.55;18.73;;;16.60;63.10;;;;;;4034033;29;20057;-65
2022/03/17 04:06:48;;;;;;;31.90;20.35;;;16.60;63.00;;;;;;4018715;29;20079;-66
2022/03/17 04:09:11;;;;;;;26.02;18.92;;;16.50;63.10;;;;;;4044222;29;20052;-66
2022/03/17 04:11:33;;;;;;;25.70;18.35;;;16.50;63.20;;;;;;4048471;29;20483;-66
2022/03/17 04:13:58;;;;;;;25.15;18.83;;;16.50;63.20;;;;;;4032889;29;20527;-66
2022/03/17 04:16:20;;;;;;;24.65;18.52;;;16.50;63.10;;;;;;4047481;29;20060;-65
2022/03/17 04:18:42;;;;;;;26.55;19.08;;;16.50;62.10;;;;;;4064167;29;20052;-65
2022/03/17 04:21:06;;;;;;;26.98;18.58;;;16.50;62.40;;;;;;4041125;29;20049;-65
2022/03/17 04:23:29;;;;;;;25.40;18.02;;;16.40;62.30;;;;;;4034231;29;20057;-65
2022/03/17 04:25:51;;;;;;;25.30;19.73;;;16.40;62.40;;;;;;4032689;29;20051;-65
2022/03/17 04:28:14;;;;;;;24.35;18.92;;;16.40;62.40;;;;;;4021857;29;20068;-65
2022/03/17 04:30:36;;;;;;;26.70;19.63;;;16.40;62.40;;;;;;4032730;29;20807;-65
2022/03/17 04:32:59;;;;;;;26.98;21.13;;;16.30;62.50;;;;;;4028526;29;20061;-65
2022/03/17 04:35:21;;;;;;;27.88;20.30;;;16.30;62.50;;;;;;4046841;29;20640;-65
2022/03/17 04:37:45;;;;;;;24.85;18.60;;;16.30;63.00;;;;;;4040204;29;20415;-66
2022/03/17 04:40:08;;;;;;;25.52;18.90;;;16.30;63.40;;;;;;4031885;29;20044;-66
2022/03/17 04:42:30;;;;;;;25.25;19.85;;;16.30;63.70;;;;;;4034072;29;20053;-64
2022/03/17 04:44:53;;;;;;;26.08;19.27;;;16.30;64.60;;;;;;4031479;29;20514;-65
2022/03/17 04:47:15;;;;;;;26.65;19.65;;;16.40;64.90;;;;;;4047752;29;20052;-66
2022/03/17 04:49:38;;;;;;;28.13;20.25;;;16.50;64.70;;;;;;4047922;29;20136;-66
2022/03/17 04:52:00;;;;;;;24.52;18.85;;;16.60;64.30;;;;;;4048600;29;20048;-66
2022/03/17 04:54:24;;;;;;;27.25;20.08;;;16.70;64.10;;;;;;4032960;29;20068;-66
2022/03/17 04:56:46;;;;;;;29.80;21.08;;;16.70;64.00;;;;;;4044492;29;20380;-66
2022/03/17 04:59:08;;;;;;;26.40;20.52;;;16.70;63.80;;;;;;4034575;29;20448;-65
2022/03/17 05:01:30;;;;;;;28.67;21.10;;;16.80;63.80;;;;;;4048815;29;20388;-66
2022/03/17 05:03:53;;;;;;;32.20;23.17;;;16.80;63.80;;;;;;4048427;29;20060;-65
2022/03/17 05:06:16;;;;;;;28.77;23.00;;;16.80;63.80;;;;;;4048851;29;20057;-64
2022/03/17 05:08:39;;;;;;;31.38;21.88;;;16.80;64.00;;;;;;4048048;29;20049;-65
2022/03/17 05:11:03;;;;;;;29.23;23.10;;;16.80;64.90;;;;;;4048696;29;20427;-65
2022/03/17 05:13:25;;;;;;;29.00;20.63;;;16.80;65.00;;;;;;4048099;29;20053;-65
2022/03/17 05:15:48;;;;;;;31.58;23.33;;;16.80;64.20;;;;;;4048335;29;20076;-65
2022/03/17 05:18:10;;;;;;;30.20;23.67;;;16.90;64.20;;;;;;4033872;29;20459;-65
2022/03/17 05:20:33;;;;;;;29.77;22.02;;;16.90;64.00;;;;;;4047571;29;20079;-65
2022/03/17 05:22:55;;;;;;;31.70;23.52;;;16.90;64.00;;;;;;4048036;29;20475;-67
2022/03/17 05:25:17;;;;;;;30.48;23.63;;;16.90;63.90;;;;;;4048493;29;20047;-66
2022/03/17 05:27:43;;;;;;;32.17;24.38;;;16.90;64.00;;;;;;4047463;29;20507;-66
2022/03/17 05:30:06;;;;;;;34.33;23.85;;;17.00;64.20;;;;;;4048140;29;20061;-66
2022/03/17 05:32:28;;;;;;;30.33;23.10;;;17.00;64.20;;;;;;4036169;29;20048;-66
2022/03/17 05:34:50;;;;;;;31.10;24.02;;;17.00;64.20;;;;;;4033513;29;20077;-65
2022/03/17 05:37:12;;;;;;;30.52;24.23;;;17.00;64.20;;;;;;4033585;29;20052;-66
2022/03/17 05:39:35;;;;;;;32.72;23.77;;;17.00;64.20;;;;;;4031510;29;20167;-66
2022/03/17 05:41:57;;;;;;;33.17;24.45;;;17.00;64.20;;;;;;4032979;29;20056;-66
2022/03/17 05:44:20;;;;;;;30.20;22.48;;;17.00;64.30;;;;;;4033139;29;20048;-65
2022/03/17 05:46:43;;;;;;;16.85;11.85;;;16.90;65.30;;;;;;4032900;29;20049;-66
2022/03/17 05:49:05;;;;;;;5.88;5.35;;;16.90;64.40;;;;;;4018209;29;20057;-67
2022/03/17 05:51:27;;;;;;;5.75;5.15;;;16.90;64.50;;;;;;4043163;29;20062;-66
2022/03/17 05:53:49;;;;;;;4.60;4.20;;;16.90;64.60;;;;;;4031048;29;20503;-66
2022/03/17 05:56:11;;;;;;;5.53;5.00;;;16.80;64.60;;;;;;4032736;29;20396;-66
2022/03/17 05:58:33;;;;;;;4.88;4.47;;;16.80;64.70;;;;;;4032116;29;20059;-66
2022/03/17 06:00:59;;;;;;;4.43;4.13;;;16.80;64.90;;;;;;4032306;29;20056;-66
2022/03/17 06:03:21;;;;;;;6.40;4.95;;;16.80;65.10;;;;;;4032786;29;20052;-63
2022/03/17 06:05:44;;;;;;;6.05;5.45;;;16.80;65.30;;;;;;4032515;29;20500;-64
2022/03/17 06:08:08;;;;;;;4.78;4.38;;;16.80;65.60;;;;;;4038215;29;20065;-65
2022/03/17 06:10:33;;;;;;;5.88;4.75;;;16.90;65.50;;;;;;4032941;29;20507;-66
2022/03/17 06:12:56;;;;;;;5.43;4.93;;;16.90;65.20;;;;;;4047265;29;20056;-65
2022/03/17 06:15:20;;;;;;;8.07;6.05;;;17.00;65.00;;;;;;4045099;29;20048;-64
2022/03/17 06:17:45;;;;;;;14.27;6.38;;;17.00;64.80;;;;;;4035878;29;20080;-65
2022/03/17 06:20:09;;;;;;;10.98;7.93;;;17.00;64.70;;;;;;4039395;29;20487;-66
2022/03/17 06:22:32;;;;;;;11.18;7.70;;;17.00;64.70;;;;;;4047538;29;20143;-67
2022/03/17 06:24:54;;;;;;;14.93;7.55;;;17.00;64.70;;;;;;4047568;29;20172;-67
2022/03/17 06:27:16;;;;;;;16.08;7.75;;;17.00;64.90;;;;;;4047449;29;20045;-67
2022/03/17 06:29:39;;;;;;;10.82;7.38;;;16.90;64.80;;;;;;4046230;29;20068;-67
2022/03/17 06:32:02;;;;;;;12.52;7.38;;;16.90;65.80;;;;;;4038966;29;20147;-66
2022/03/17 06:34:26;;;;;;;10.15;6.60;;;16.90;65.00;;;;;;4038675;29;20465;-66
2022/03/17 06:36:49;;;;;;;11.35;6.30;;;16.80;64.90;;;;;;4039928;29;20132;-66
2022/03/17 06:39:11;;;;;;;9.70;5.63;;;16.80;65.00;;;;;;4031533;29;20109;-66
2022/03/17 06:41:33;;;;;;;9.43;4.93;;;16.80;65.20;;;;;;4037901;29;20048;-67
2022/03/17 06:43:55;;;;;;;13.88;4.75;;;16.70;65.30;;;;;;4030280;29;20049;-67
2022/03/17 06:46:17;;;;;;;6.18;4.43;;;16.70;65.50;;;;;;4031968;29;20083;-66
2022/03/17 06:48:39;;;;;;;10.38;4.55;;;16.60;65.40;;;;;;4031952;29;20045;-67
2022/03/17 06:51:03;;;;;;;11.27;3.97;;;16.60;65.40;;;;;;4032100;29;20124;-66
2022/03/17 06:53:25;;;;;;;10.38;4.18;;;16.60;65.60;;;;;;4037249;29;20100;-66
2022/03/17 06:55:47;;;;;;;11.63;4.30;;;16.50;65.60;;;;;;4032592;29;20512;-67
2022/03/17 06:58:10;;;;;;;7.07;3.88;;;16.60;65.60;;;;;;4047121;29;20060;-67
2022/03/17 07:00:32;;;;;;;10.63;4.28;;;16.50;65.70;;;;;;4031437;29;20052;-67
2022/03/17 07:02:54;;;;;;;12.30;4.25;;;16.50;65.70;;;;;;4042238;29;20502;-66
2022/03/17 07:05:17;;;;;;;7.00;3.60;;;16.50;65.70;;;;;;4031188;29;20419;-66
2022/03/17 07:07:40;;;;;;;7.78;3.60;;;16.40;65.70;;;;;;4035086;29;20515;-66
2022/03/17 07:10:03;;;;;;;8.82;3.10;;;16.40;65.70;;;;;;4046689;29;20049;-66
2022/03/17 07:12:26;;;;;;;10.18;2.58;;;16.40;65.70;;;;;;4046583;29;20464;-66
2022/03/17 07:14:49;;;;;;;6.45;2.63;;;16.40;65.70;;;;;;4032747;29;20045;-67
2022/03/17 07:17:12;;;;;;;6.43;2.47;;;16.30;65.50;;;;;;4044908;29;20120;-66
2022/03/17 07:19:34;;;;;;;7.60;1.90;;;16.30;65.70;;;;;;4045696;29;20072;-66
2022/03/17 07:21:57;;;;;;;6.15;1.92;;;16.30;65.70;;;;;;4045868;29;20056;-66
2022/03/17 07:24:20;;;;;;;3.40;1.70;;;16.30;65.60;;;;;;4046816;29;20605;-66
2022/03/17 07:26:43;;;;;;;8.68;2.10;;;16.30;65.90;;;;;;4046596;29;20052;-66
2022/03/17 07:29:05;;;;;;;4.38;1.40;;;16.20;65.70;;;;;;4016801;29;20592;-66
2022/03/17 07:31:28;;;;;;;6.43;1.63;;;16.20;65.50;;;;;;4031163;29;20511;-65
2022/03/17 07:33:50;;;;;;;4.20;1.55;;;16.20;65.50;;;;;;4032527;29;20523;-66
2022/03/17 07:36:12;;;;;;;4.85;1.27;;;16.20;66.20;;;;;;4046616;29;20056;-66
2022/03/17 07:38:35;;;;;;;4.97;1.52;;;16.20;66.80;;;;;;4045036;29;20179;-67
2022/03/17 07:40:58;;;;;;;5.50;1.88;;;16.30;66.40;;;;;;4045895;29;20456;-67
2022/03/17 07:43:23;;;;;;;4.60;1.40;;;16.40;66.00;;;;;;4046218;29;20135;-66
2022/03/17 07:46:01;;;;;;;5.80;1.58;;;16.40;65.60;;;;;;4045042;29;20172;-66
2022/03/17 07:48:52;;;;;;;9.50;2.13;;;16.50;65.20;;;;;;4030485;29;20059;-67
2022/03/17 07:51:23;;;;;;;6.78;1.55;;;16.50;65.00;;;;;;4018429;29;20540;-66
2022/03/17 07:53:46;;;;;;;6.03;1.73;;;16.50;64.80;;;;;;4033243;29;20057;-66
2022/03/17 07:56:14;;;;;;;8.25;2.05;;;16.50;64.90;;;;;;4033679;29;20061;-65
2022/03/17 07:58:39;;;;;;;7.03;1.05;;;16.50;64.70;;;;;;4033666;29;20535;-65
2022/03/17 08:01:02;;;;;;;8.10;1.48;;;16.60;64.50;;;;;;4032906;29;20141;-65
2022/03/17 08:03:25;;;;;;;9.27;1.63;;;16.60;64.50;;;;;;4048223;29;20080;-65
2022/03/17 08:05:48;;;;;;;14.57;2.60;;;16.60;64.40;;;;;;4049371;29;20048;-65
2022/03/17 08:08:10;;;;;;;4.75;1.60;;;16.60;64.20;;;;;;4048032;29;20499;-66
2022/03/17 08:10:33;;;;;;;9.10;2.08;;;16.70;64.30;;;;;;4048766;29;20048;-66
2022/03/17 08:12:57;;;;;;;5.88;1.52;;;16.70;63.90;;;;;;4049070;29;20463;-66
2022/03/17 08:15:19;;;;;;;7.03;1.65;;;16.70;63.80;;;;;;4034865;29;20057;-65
2022/03/17 08:17:42;;;;;;;7.75;1.75;;;16.70;63.60;;;;;;4023713;29;20156;-65
2022/03/17 08:20:06;;;;;;;8.52;1.70;;;16.70;63.60;;;;;;4033531;29;20064;-66
2022/03/17 08:22:28;;;;;;;9.07;2.25;;;16.70;63.70;;;;;;4012213;29;20081;-66
2022/03/17 08:24:51;;;;;;;7.00;1.52;;;16.70;63.60;;;;;;4046671;29;20040;-66
2022/03/17 08:27:14;;;;;;;7.22;1.70;;;16.70;63.40;;;;;;4040177;29;20100;-66
2022/03/17 08:29:40;;;;;;;6.35;1.88;;;16.70;63.30;;;;;;4040798;29;20053;-66
2022/03/17 08:32:04;;;;;;;8.25;1.83;;;16.70;63.40;;;;;;4048586;29;20048;-67
2022/03/17 08:34:26;;;;;;;9.82;1.75;;;16.80;63.40;;;;;;4060227;29;20139;-66
2022/03/17 08:36:49;;;;;;;8.43;2.13;;;16.90;62.90;;;;;;4049610;29;20135;-66
2022/03/17 08:39:12;;;;;;;9.48;2.97;;;16.90;62.70;;;;;;4049760;29;20053;-66
2022/03/17 08:41:34;;;;;;;9.25;1.88;;;17.00;62.40;;;;;;4064134;29;20048;-65
2022/03/17 08:43:57;;;;;;;9.95;1.90;;;17.10;62.10;;;;;;4032900;29;20396;-65
2022/03/17 08:51:39;;;;;;;12.10;2.05;;;17.10;62.70;;;;;;4064103;29;20056;-65
2022/03/17 08:54:03;;;;;;;12.27;2.50;;;17.10;61.80;;;;;;4045598;29;20155;-66
2022/03/17 08:56:25;;;;;;;11.80;1.80;;;17.10;61.80;;;;;;4033295;29;20131;-65
2022/03/17 08:58:47;;;;;;;9.90;2.22;;;17.00;61.70;;;;;;4043484;29;20064;-65
2022/03/17 09:01:10;;;;;;;10.50;2.55;;;17.00;61.90;;;;;;4043701;29;20108;-65
2022/03/17 09:03:34;;;;;;;12.38;2.08;;;17.00;62.00;;;;;;4048104;29;20044;-66
2022/03/17 09:05:58;;;;;;;6.38;1.58;;;16.90;62.10;;;;;;4048159;29;20053;-64
2022/03/17 09:08:20;;;;;;;7.53;1.33;;;16.90;61.90;;;;;;4033549;29;20453;-65
2022/03/17 09:10:42;;;;;;;6.43;1.95;;;16.80;61.60;;;;;;4032550;29;20063;-66
2022/03/17 09:13:07;;;;;;;5.72;1.58;;;16.80;61.10;;;;;;4032886;29;20053;-66
2022/03/17 09:15:30;;;;;;;3.15;1.30;;;16.70;61.50;;;;;;4032901;29;20063;-66
2022/03/17 09:17:52;;;;;;;7.05;1.30;;;16.70;61.80;;;;;;4036620;29;20063;-66
2022/03/17 09:20:17;;;;;;;5.70;1.10;;;16.60;62.60;;;;;;4046858;29;20192;-66
2022/03/17 09:22:40;;;;;;;7.82;1.95;;;16.60;61.60;;;;;;4048259;29;20414;-66
2022/03/17 09:25:04;;;;;;;9.02;1.80;;;16.60;61.50;;;;;;4047273;29;20049;-66
2022/03/17 09:27:28;;;;;;;4.95;1.30;;;16.50;61.80;;;;;;4048084;29;20992;-66
2022/03/17 09:29:50;;;;;;;4.90;1.30;;;16.50;61.80;;;;;;4032805;29;20053;-66
2022/03/17 09:32:15;;;;;;;7.63;1.15;;;16.50;61.80;;;;;;4033443;29;20057;-66
2022/03/17 09:34:38;;;;;;;11.13;1.38;;;16.40;62.00;;;;;;4032992;29;20144;-67
2022/03/17 09:37:02;;;;;;;8.30;1.65;;;16.40;61.90;;;;;;4046081;29;20391;-67
2022/03/17 09:42:05;;;;;;;9.75;1.95;;;16.30;62.10;;;;;;4029765;29;20044;-67
2022/03/17 09:44:28;;;;;;;6.82;1.55;;;16.30;61.80;;;;;;4018196;29;20061;-67
2022/03/17 09:46:55;;;;;;;10.70;2.25;;;16.30;62.80;;;;;;4032204;29;20088;-66
2022/03/17 09:49:17;;;;;;;5.35;1.75;;;16.30;62.00;;;;;;4037972;29;20051;-66
2022/03/17 09:51:43;;;;;;;11.60;2.10;;;16.20;62.00;;;;;;4037112;29;20052;-66
2022/03/17 09:54:06;;;;;;;12.65;2.20;;;16.20;62.10;;;;;;4045928;29;20118;-67
2022/03/17 09:56:30;;;;;;;7.93;1.58;;;16.10;62.10;;;;;;4047372;29;20068;-66
2022/03/17 09:58:53;;;;;;;5.88;1.50;;;16.10;62.20;;;;;;4045875;29;20045;-65
2022/03/17 10:01:19;;;;;;;13.32;2.45;;;16.10;62.10;;;;;;4032209;29;20064;-67
2022/03/17 10:03:42;;;;;;;10.48;1.90;;;16.10;61.40;;;;;;4020191;29;20069;-67
2022/03/17 10:06:06;;;;;;;9.00;1.80;;;16.10;62.20;;;;;;4031782;29;20411;-67
2022/03/17 10:08:29;;;;;;;8.32;1.90;;;16.20;62.60;;;;;;4025370;29;20044;-66
2022/03/17 10:10:53;;;;;;;12.02;2.08;;;16.20;62.30;;;;;;4031236;29;20057;-66
2022/03/17 10:13:17;;;;;;;7.65;1.67;;;16.30;62.10;;;;;;4031354;29;20132;-67
2022/03/17 10:15:40;;;;;;;4.75;1.52;;;16.40;62.00;;;;;;4018101;29;20063;-67
2022/03/17 10:18:19;;;;;;;8.02;1.80;;;16.40;61.70;;;;;;4032942;29;20508;-66
2022/03/17 10:20:42;;;;;;;6.13;1.67;;;16.50;61.50;;;;;;4033622;29;20053;-66
2022/03/17 10:23:06;;;;;;;8.43;1.58;;;16.60;60.90;;;;;;4046432;29;20056;-66
2022/03/17 10:25:30;;;;;;;5.53;1.65;;;16.50;61.30;;;;;;4045343;29;20051;-67
2022/03/17 10:27:55;;;;;;;10.65;2.33;;;16.60;61.40;;;;;;4031507;29;20071;-66
2022/03/17 10:30:23;;;;;;;10.63;1.90;;;16.60;61.40;;;;;;4031385;29;20076;-66
2022/03/17 10:32:56;;;;;;;11.85;1.88;;;16.60;61.50;;;;;;4055803;29;20075;-67
2022/03/17 10:35:24;;;;;;;9.30;1.70;;;16.60;61.20;;;;;;4031850;29;20375;-66
2022/03/17 10:37:47;;;;;;;9.80;2.03;;;16.50;61.40;;;;;;4028520;29;20065;-66
2022/03/17 10:40:14;;;;;;;11.55;2.10;;;16.60;61.50;;;;;;4031591;29;20121;-66
2022/03/17 10:42:36;;;;;;;7.45;1.98;;;16.50;61.40;;;;;;4030840;29;20096;-66
2022/03/17 10:45:05;;;;;;;12.60;2.30;;;16.50;61.50;;;;;;4031559;29;20073;-66
2022/03/17 10:47:29;;;;;;;14.23;2.25;;;16.50;61.90;;;;;;4032138;29;20438;-67
2022/03/17 10:50:10;;;;;;;13.18;2.50;;;16.50;61.80;;;;;;4045651;29;20045;-66
2022/03/17 10:52:50;;;;;;;9.38;1.70;;;16.50;61.40;;;;;;4008829;29;20072;-66
2022/03/17 10:55:13;;;;;;;13.60;4.85;;;16.50;61.60;;;;;;4043104;29;20096;-66
2022/03/17 10:57:36;;;;;;;9.43;2.58;;;16.50;61.60;;;;;;4028020;29;20055;-67
2022/03/17 11:00:00;;;;;;;11.27;3.13;;;16.60;61.60;;;;;;4032854;29;20045;-67
2022/03/17 11:02:25;;;;;;;10.68;2.30;;;16.60;61.50;;;;;;4030601;29;20113;-67
2022/03/17 11:04:49;;;;;;;9.65;1.95;;;16.60;61.30;;;;;;4023241;29;20865;-67
2022/03/17 11:07:14;;;;;;;11.02;2.00;;;16.60;60.90;;;;;;4031761;29;20075;-66
2022/03/17 11:09:38;;;;;;;8.88;2.10;;;16.60;60.40;;;;;;4029272;29;20045;-66
2022/03/17 11:12:02;;;;;;;8.35;1.63;;;16.50;60.20;;;;;;4031145;29;20041;-66
2022/03/17 11:14:25;;;;;;;10.25;1.98;;;16.60;60.50;;;;;;4045577;29;20079;-66
2022/03/17 11:16:51;;;;;;;9.57;1.73;;;16.60;60.90;;;;;;4045337;29;20052;-67
2022/03/17 11:19:18;;;;;;;8.02;1.73;;;16.60;60.70;;;;;;4045444;29;20049;-67
2022/03/17 11:21:46;;;;;;;11.82;2.40;;;16.60;60.50;;;;;;4042678;29;20056;-67
2022/03/17 11:24:18;;;;;;;11.50;2.05;;;16.60;60.70;;;;;;4027700;29;20057;-65
2022/03/17 11:26:43;;;;;;;7.18;1.50;;;16.60;60.50;;;;;;4048905;29;20068;-66
2022/03/17 11:29:07;;;;;;;10.85;2.28;;;16.60;60.40;;;;;;4048502;29;20049;-66
2022/03/17 11:31:49;;;;;;;6.78;2.10;;;16.60;60.40;;;;;;4032309;29;20072;-66
2022/03/17 11:34:15;;;;;;;9.55;2.72;;;16.60;60.40;;;;;;4033191;29;20048;-66
2022/03/17 11:36:38;;;;;;;10.40;1.60;;;16.60;60.30;;;;;;4033443;29;20052;-66
2022/03/17 11:39:18;;;;;;;9.43;2.10;;;16.60;60.60;;;;;;4032492;29;20080;-66
2022/03/17 11:41:42;;;;;;;11.43;1.83;;;16.50;60.00;;;;;;4034135;29;20056;-66
2022/03/17 11:44:06;;;;;;;10.07;2.58;;;16.60;60.30;;;;;;4048062;29;20057;-65
2022/03/17 11:46:41;;;;;;;10.32;2.08;;;16.60;59.80;;;;;;4033915;29;20388;-66
2022/03/17 11:49:20;;;;;;;13.68;1.80;;;16.60;60.20;;;;;;4034111;29;20049;-66
2022/03/17 11:51:53;;;;;;;7.03;1.50;;;16.60;60.30;;;;;;4049621;29;20057;-65
2022/03/17 11:54:16;;;;;;;9.45;1.77;;;16.60;61.20;;;;;;4047827;29;20048;-65
2022/03/17 11:56:41;;;;;;;9.27;2.08;;;16.60;60.70;;;;;;4031540;29;20124;-65
2022/03/17 11:59:03;;;;;;;10.07;1.95;;;16.60;61.00;;;;;;4032608;29;20060;-65
2022/03/17 12:01:29;;;;;;;7.55;1.77;;;16.60;61.90;;;;;;4034027;29;20049;-65
2022/03/17 12:03:55;;;;;;;11.38;2.35;;;16.60;61.50;;;;;;4034125;29;20056;-65
2022/03/17 12:06:20;;;;;;;10.00;2.05;;;16.60;61.20;;;;;;4032731;29;20057;-65
2022/03/17 12:08:55;;;;;;;6.57;2.22;;;16.60;61.10;;;;;;4018917;29;20046;-65
2022/03/17 12:11:19;;;;;;;9.18;2.05;;;16.60;60.80;;;;;;4028727;29;20057;-65
2022/03/17 12:13:42;;;;;;;14.93;1.90;;;16.60;60.80;;;;;;4019203;29;20189;-64
2022/03/17 12:16:06;;;;;;;6.45;1.50;;;16.60;60.70;;;;;;4018491;29;20216;-65
2022/03/17 12:18:29;;;;;;;9.02;2.15;;;16.60;60.70;;;;;;4042395;29;20122;-65
2022/03/17 12:20:52;;;;;;;6.32;1.80;;;16.60;59.20;;;;;;4048478;29;20049;-65
2022/03/17 12:23:49;;;;;;;8.35;1.65;;;16.60;59.80;;;;;;4031353;29;20053;-65
2022/03/17 12:26:12;;;;;;;11.55;2.33;;;16.60;60.40;;;;;;4033081;29;20063;-64
2022/03/17 12:28:34;;;;;;;12.90;1.85;;;16.70;61.20;;;;;;4034167;29;20053;-64
2022/03/17 12:30:57;;;;;;;9.57;1.52;;;16.70;61.80;;;;;;4038868;29;20056;-66
2022/03/17 12:33:21;;;;;;;8.05;1.83;;;16.70;60.60;;;;;;4034156;29;20049;-66
2022/03/17 12:35:45;;;;;;;4.97;1.42;;;16.70;60.40;;;;;;4047263;29;20064;-66
2022/03/17 12:38:09;;;;;;;7.72;1.98;;;16.80;59.90;;;;;;4048535;29;20048;-66
2022/03/17 12:40:35;;;;;;;5.00;2.00;;;16.80;60.00;;;;;;4049020;29;20147;-66